createdAt,value
2023-01-04T00:01:50.451Z,2.75
2023-01-04T00:04:16.881Z,2.20
2023-01-04T00:06:43.328Z,2.83
2023-01-04T00:09:09.763Z,2.20
2023-01-04T00:11:36.210Z,2.83
2023-01-04T00:14:02.941Z,2.67
2023-01-04T00:16:29.534Z,2.53
2023-01-04T00:18:57.169Z,2.25
2023-01-04T00:21:29.220Z,2.75
2023-01-04T00:23:59.977Z,3.27
2023-01-04T00:26:29.288Z,2.50
2023-01-04T00:29:01.209Z,2.95
2023-01-04T00:31:28.894Z,2.22
2023-01-04T00:33:57.027Z,2.33
2023-01-04T00:36:24.474Z,2.38
2023-01-04T00:39:07.435Z,2.33
2023-01-04T00:42:01.523Z,2.20
2023-01-04T00:44:29.021Z,2.58
2023-01-04T00:46:55.635Z,3.53
2023-01-04T00:49:22.164Z,2.10
2023-01-04T00:51:48.760Z,2.20
2023-01-04T00:54:16.630Z,2.13
2023-01-04T00:56:44.065Z,2.78
2023-01-04T00:59:12.595Z,2.03
2023-01-04T01:01:39.752Z,2.13
2023-01-04T01:04:06.829Z,2.58
2023-01-04T01:06:34.010Z,2.17
2023-01-04T01:09:01.236Z,2.35
2023-01-04T01:11:28.556Z,2.45
2023-01-04T01:13:55.278Z,1.92
2023-01-04T01:16:51.700Z,3.15
2023-01-04T01:19:10.439Z,2.00
2023-01-04T01:21:38.044Z,2.53
2023-01-04T01:24:05.738Z,1.92
2023-01-04T01:26:32.352Z,2.00
2023-01-04T01:28:59.152Z,2.08
2023-01-04T01:31:28.436Z,2.25
2023-01-04T01:33:56.710Z,2.15
2023-01-04T01:36:26.078Z,2.00
2023-01-04T01:38:53.524Z,2.00
2023-01-04T01:41:21.621Z,2.75
2023-01-04T01:44:26.404Z,2.15
2023-01-04T01:46:54.764Z,2.05
2023-01-04T01:49:29.042Z,2.55
2023-01-04T01:51:59.075Z,1.83
2023-01-04T01:54:47.656Z,1.77
2023-01-04T01:57:19.631Z,1.73
2023-01-04T01:59:48.494Z,1.85
2023-01-04T02:02:15.087Z,1.80
2023-01-04T02:04:46.502Z,2.00
2023-01-04T02:07:19.211Z,1.83
2023-01-04T02:09:47.095Z,1.92
2023-01-04T02:12:14.362Z,2.00
2023-01-04T02:14:43.978Z,2.00
2023-01-04T02:17:38.097Z,1.63
2023-01-04T02:20:32.844Z,2.05
2023-01-04T02:23:47.347Z,2.08
2023-01-04T02:26:22.582Z,1.67
2023-01-04T02:29:17.781Z,1.55
2023-01-04T02:31:57.301Z,1.58
2023-01-04T02:34:41.427Z,2.13
2023-01-04T02:37:25.702Z,1.73
2023-01-04T02:39:54.896Z,1.60
2023-01-04T02:42:52.494Z,1.60
2023-01-04T02:45:24.532Z,1.70
2023-01-04T02:48:10.053Z,3.00
2023-01-04T02:50:57.023Z,2.25
2023-01-04T02:53:31.694Z,1.85
2023-01-04T02:56:16.248Z,1.60
2023-01-04T02:58:55.491Z,1.50
2023-01-04T03:02:00.370Z,1.48
2023-01-04T03:04:57.802Z,1.55
2023-01-04T03:07:32.174Z,1.50
2023-01-04T03:10:07.712Z,2.00
2023-01-04T03:12:44.524Z,1.70
2023-01-04T03:15:20.631Z,1.67
2023-01-04T03:17:52.984Z,1.95
2023-01-04T03:20:20.705Z,1.50
2023-01-04T03:23:16.868Z,2.00
2023-01-04T03:26:13.297Z,1.55
2023-01-04T03:29:00.703Z,1.60
2023-01-04T03:31:59.371Z,1.83
2023-01-04T03:34:45.042Z,1.40
2023-01-04T03:37:19.290Z,1.77
2023-01-04T03:40:18.754Z,1.40
2023-01-04T03:43:38.364Z,1.83
2023-01-04T03:46:26.518Z,1.60
2023-01-04T03:49:09.167Z,1.70
2023-01-04T03:51:38.466Z,1.70
2023-01-04T03:54:11.864Z,2.13
2023-01-04T03:56:42.003Z,2.17
2023-01-04T03:59:10.564Z,1.67
2023-01-04T04:01:37.403Z,2.33
2023-01-04T04:04:23.271Z,1.60
2023-01-04T04:07:08.477Z,1.40
2023-01-04T04:09:35.285Z,1.70
2023-01-04T04:12:01.834Z,1.67
2023-01-04T04:14:28.411Z,1.42
2023-01-04T04:16:55.040Z,1.13
2023-01-04T04:19:22.116Z,1.55
2023-01-04T04:21:48.762Z,1.92
2023-01-04T04:24:24.256Z,1.83
2023-01-04T04:26:52.210Z,1.30
2023-01-04T04:29:18.640Z,1.52
2023-01-04T04:31:45.172Z,2.20
2023-01-04T04:34:11.917Z,1.10
2023-01-04T04:36:38.824Z,1.30
2023-01-04T04:39:05.590Z,2.72
2023-01-04T04:41:38.464Z,1.55
2023-01-04T04:44:06.284Z,1.38
2023-01-04T04:46:32.810Z,1.45
2023-01-04T04:48:59.293Z,1.50
2023-01-04T04:51:25.775Z,1.77
2023-01-04T04:53:52.256Z,1.58
2023-01-04T04:56:18.755Z,1.33
2023-01-04T04:58:45.209Z,1.83
2023-01-04T05:01:11.927Z,1.60
2023-01-04T05:03:38.675Z,1.25
2023-01-04T05:06:05.349Z,1.55
2023-01-04T05:08:32.153Z,1.20
2023-01-04T05:10:58.598Z,1.50
2023-01-04T05:13:25.149Z,1.88
2023-01-04T05:15:54.281Z,1.55
2023-01-04T05:18:22.192Z,1.65
2023-01-04T05:20:49.140Z,2.03
2023-01-04T05:23:18.057Z,1.70
2023-01-04T05:25:44.611Z,1.30
2023-01-04T05:28:11.225Z,1.27
2023-01-04T05:30:56.418Z,1.20
2023-01-04T05:33:25.906Z,1.20
2023-01-04T05:35:53.885Z,1.50
2023-01-04T05:38:21.159Z,1.25
2023-01-04T05:40:48.482Z,1.20
2023-01-04T05:43:15.699Z,1.17
2023-01-04T05:45:52.562Z,1.30
2023-01-04T05:48:20.274Z,1.58
2023-01-04T05:50:47.101Z,1.55
2023-01-04T05:53:14.754Z,2.05
2023-01-04T05:55:41.286Z,1.25
2023-01-04T05:58:07.811Z,1.30
2023-01-04T06:00:34.343Z,1.20
2023-01-04T06:03:00.932Z,2.13
2023-01-04T06:05:27.726Z,1.40
2023-01-04T06:07:54.271Z,1.15
2023-01-04T06:10:21.242Z,0.85
2023-01-04T06:12:48.543Z,1.10
2023-01-04T06:15:15.541Z,1.33
2023-01-04T06:17:42.049Z,1.10
2023-01-04T06:20:10.209Z,1.20
2023-01-04T06:22:37.144Z,1.30
2023-01-04T06:25:04.606Z,1.77
2023-01-04T06:27:31.196Z,1.20
2023-01-04T06:29:57.687Z,1.13
2023-01-04T06:32:24.323Z,1.20
2023-01-04T06:34:50.944Z,1.20
2023-01-04T06:37:17.596Z,1.38
2023-01-04T06:39:44.143Z,1.00
2023-01-04T06:42:30.639Z,1.35
2023-01-04T06:44:57.273Z,1.13
2023-01-04T06:47:23.746Z,1.58
2023-01-04T06:49:50.241Z,1.20
2023-01-04T06:52:16.728Z,1.73
2023-01-04T06:54:43.303Z,1.27
2023-01-04T06:57:09.805Z,1.90
2023-01-04T06:59:36.459Z,4.20
2023-01-04T07:02:03.194Z,1.27
2023-01-04T07:04:29.823Z,1.10
2023-01-04T07:06:57.751Z,1.00
2023-01-04T07:09:24.428Z,2.13
2023-01-04T07:11:50.977Z,2.42
2023-01-04T07:14:17.489Z,2.38
2023-01-04T07:16:43.965Z,1.13
2023-01-04T07:19:10.453Z,1.20
2023-01-04T07:21:36.896Z,1.55
2023-01-04T07:24:03.385Z,0.98
2023-01-04T07:26:29.824Z,2.15
2023-01-04T07:29:14.556Z,1.17
2023-01-04T07:31:41.932Z,0.77
2023-01-04T07:34:08.482Z,1.45
2023-01-04T07:36:34.980Z,3.92
2023-01-04T07:39:01.729Z,1.10
2023-01-04T07:41:28.184Z,1.10
2023-01-04T07:43:54.753Z,1.70
2023-01-04T07:46:22.355Z,2.65
2023-01-04T07:48:48.955Z,0.85
2023-01-04T07:51:16.232Z,1.70
2023-01-04T07:53:42.660Z,2.60
2023-01-04T07:56:12.478Z,1.52
2023-01-04T07:58:43.387Z,1.85
2023-01-04T08:01:13.269Z,0.82
2023-01-04T08:03:41.153Z,1.73
2023-01-04T08:06:10.417Z,2.13
2023-01-04T08:08:37.457Z,1.80
2023-01-04T08:11:09.425Z,2.13
2023-01-04T08:13:35.953Z,2.80
2023-01-04T08:16:03.105Z,2.17
2023-01-04T08:18:29.884Z,6.13
2023-01-04T08:21:07.706Z,3.00
2023-01-04T08:23:36.397Z,30.88
2023-01-04T08:26:09.136Z,39.60
2023-01-04T08:28:36.413Z,21.27
2023-01-04T08:31:08.741Z,404.75
2023-01-04T08:33:37.044Z,210.98
2023-01-04T08:36:08.481Z,109.80
2023-01-04T08:41:47.295Z,166.07
2023-01-04T08:44:07.940Z,334.35
2023-01-04T08:46:34.432Z,256.42
2023-01-04T08:49:00.912Z,343.95
2023-01-04T08:51:28.614Z,416.98
2023-01-04T08:53:55.136Z,455.30
2023-01-04T08:56:21.607Z,349.98
2023-01-04T08:58:48.068Z,402.27
2023-01-04T09:01:14.582Z,562.60
2023-01-04T09:03:42.097Z,534.03
2023-01-04T09:06:14.021Z,435.92
2023-01-04T09:08:42.622Z,434.40
2023-01-04T09:11:14.690Z,394.90
2023-01-04T09:13:41.916Z,386.95
2023-01-04T09:16:12.189Z,326.02
2023-01-04T09:18:39.146Z,299.42
2023-01-04T09:21:11.300Z,281.38
2023-01-04T09:23:38.255Z,268.63
2023-01-04T09:26:21.568Z,261.60
2023-01-04T09:28:49.622Z,324.35
2023-01-04T09:31:18.254Z,295.98
2023-01-04T09:34:13.558Z,341.73
2023-01-04T09:36:32.004Z,345.58
2023-01-04T09:38:58.486Z,314.20
2023-01-04T09:41:30.832Z,343.08
2023-01-04T09:44:00.893Z,378.85
2023-01-04T09:46:42.382Z,395.35
2023-01-04T09:49:20.466Z,400.55
2023-01-04T09:52:09.646Z,384.33
2023-01-04T09:54:57.612Z,395.42
2023-01-04T09:57:35.137Z,386.75
2023-01-04T10:00:19.917Z,364.33
2023-01-04T10:02:51.693Z,381.85
2023-01-04T10:05:22.581Z,351.58
2023-01-04T10:07:49.285Z,345.10
2023-01-04T10:10:19.015Z,325.13
2023-01-04T10:13:21.490Z,322.38
2023-01-04T10:15:54.201Z,312.55
2023-01-04T10:21:46.970Z,284.85
2023-01-04T10:24:38.475Z,283.67
2023-01-04T10:27:26.675Z,267.73
2023-01-04T10:29:57.302Z,264.92
2023-01-04T10:32:39.410Z,260.15
2023-01-04T10:35:25.970Z,254.07
2023-01-04T10:38:01.085Z,246.15
2023-01-04T10:40:35.622Z,238.07
2023-01-04T10:43:19.120Z,225.38
2023-01-04T10:45:59.934Z,222.95
2023-01-04T10:48:26.383Z,216.98
2023-01-04T10:50:58.307Z,212.60
2023-01-04T10:53:37.878Z,209.95
2023-01-04T10:56:25.382Z,187.45
2023-01-04T10:59:22.787Z,183.50
2023-01-04T11:01:59.301Z,173.73
2023-01-04T11:04:32.452Z,163.10
2023-01-04T11:07:25.164Z,161.77
2023-01-04T11:09:57.967Z,161.52
2023-01-04T11:12:24.583Z,161.20
2023-01-04T11:14:52.132Z,156.88
2023-01-04T11:17:20.455Z,153.63
2023-01-04T11:19:47.582Z,153.73
2023-01-04T11:22:30.173Z,146.57
2023-01-04T11:25:34.572Z,147.63
2023-01-04T11:28:16.150Z,143.05
2023-01-04T11:30:54.902Z,136.57
2023-01-04T11:33:23.787Z,131.88
2023-01-04T11:35:56.855Z,131.98
2023-01-04T11:38:27.596Z,129.20
2023-01-04T11:41:07.302Z,126.88
2023-01-04T11:43:39.479Z,123.00
2023-01-04T11:46:07.272Z,122.53
2023-01-04T11:48:38.638Z,118.70
2023-01-04T11:51:17.149Z,115.88
2023-01-04T11:54:16.565Z,111.32
2023-01-04T11:57:12.020Z,106.20
2023-01-04T11:59:39.099Z,105.40
2023-01-04T12:05:28.047Z,99.13
2023-01-04T12:10:26.659Z,94.45
2023-01-04T12:13:00.376Z,98.07
2023-01-04T12:16:19.531Z,89.18
2023-01-04T12:18:46.687Z,88.70
2023-01-04T12:21:19.215Z,86.55
2023-01-04T12:23:47.128Z,83.45
2023-01-04T12:26:14.738Z,83.43
2023-01-04T12:28:44.499Z,80.88
2023-01-04T12:31:20.969Z,77.35
2023-01-04T12:33:52.409Z,77.00
2023-01-04T12:36:20.891Z,76.32
2023-01-04T12:38:59.987Z,72.80
2023-01-04T12:41:35.495Z,71.28
2023-01-04T12:44:03.228Z,69.68
2023-01-04T12:46:48.361Z,68.22
2023-01-04T12:49:34.173Z,67.78
2023-01-04T12:52:30.590Z,65.70
2023-01-04T12:54:57.935Z,63.13
2023-01-04T12:57:37.908Z,61.53
2023-01-04T13:00:15.635Z,59.90
2023-01-04T13:02:52.427Z,59.92
2023-01-04T13:05:54.971Z,54.95
2023-01-04T13:08:14.972Z,58.33
2023-01-04T13:10:47.228Z,55.72
2023-01-04T13:13:22.639Z,56.20
2023-01-04T13:16:20.615Z,55.25
2023-01-04T13:18:47.572Z,50.83
2023-01-04T13:21:16.997Z,51.92
2023-01-04T13:23:53.112Z,49.55
2023-01-04T13:26:31.791Z,49.47
2023-01-04T13:29:08.131Z,47.72
2023-01-04T13:31:46.053Z,48.83
2023-01-04T13:34:18.156Z,45.45
2023-01-04T13:36:44.607Z,45.23
2023-01-04T13:39:12.623Z,45.80
2023-01-04T13:41:43.759Z,44.55
2023-01-04T13:44:33.137Z,44.33
2023-01-04T13:47:12.320Z,43.45
2023-01-04T13:49:40.777Z,41.25
2023-01-04T13:52:50.552Z,43.10
2023-01-04T13:55:32.231Z,40.55
2023-01-04T13:58:00.980Z,42.65
2023-01-04T14:00:35.827Z,39.92
2023-01-04T14:03:13.060Z,37.80
2023-01-04T14:05:47.264Z,39.63
2023-01-04T14:08:23.611Z,38.45
2023-01-04T14:10:50.563Z,37.97
2023-01-04T14:13:19.226Z,36.45
2023-01-04T14:15:45.962Z,37.85
2023-01-04T14:18:27.448Z,36.75
2023-01-04T14:20:54.114Z,36.40
2023-01-04T14:23:32.720Z,35.55
2023-01-04T14:25:59.380Z,34.70
2023-01-04T14:28:33.153Z,34.63
2023-01-04T14:30:59.788Z,33.72
2023-01-04T14:33:36.053Z,32.50
2023-01-04T14:36:09.102Z,32.10
2023-01-04T14:38:48.927Z,32.30
2023-01-04T14:41:18.219Z,32.13
2023-01-04T14:43:53.411Z,30.92
2023-01-04T14:46:21.953Z,31.02
2023-01-04T14:48:49.421Z,29.40
2023-01-04T14:51:23.814Z,30.13
2023-01-04T14:53:51.154Z,29.52
2023-01-04T14:56:18.931Z,28.50
2023-01-04T14:58:45.515Z,28.50
2023-01-04T15:01:12.529Z,28.58
2023-01-04T15:03:39.657Z,29.60
2023-01-04T15:06:06.900Z,27.90
2023-01-04T15:08:33.953Z,27.35
2023-01-04T15:11:00.595Z,27.15
2023-01-04T15:13:27.227Z,27.15
2023-01-04T15:15:53.846Z,26.75
2023-01-04T15:18:20.492Z,25.33
2023-01-04T15:20:47.125Z,25.42
2023-01-04T15:23:13.767Z,24.35
2023-01-04T15:25:41.278Z,24.33
2023-01-04T15:28:08.499Z,24.77
2023-01-04T15:30:35.222Z,24.08
2023-01-04T15:33:01.718Z,24.00
2023-01-04T15:35:28.305Z,22.55
2023-01-04T15:37:54.889Z,24.70
2023-01-04T15:40:21.509Z,23.40
2023-01-04T15:42:59.865Z,24.73
2023-01-04T15:45:37.808Z,23.17
2023-01-04T15:48:06.838Z,22.95
2023-01-04T15:50:36.029Z,22.95
2023-01-04T15:53:02.724Z,23.45
2023-01-04T15:55:34.157Z,19.80
2023-01-04T15:58:02.912Z,20.00
2023-01-04T16:00:29.501Z,19.83
2023-01-04T16:02:56.530Z,20.00
2023-01-04T16:05:23.101Z,21.45
2023-01-04T16:07:49.736Z,19.13
2023-01-04T16:10:16.398Z,19.60
2023-01-04T16:12:43.118Z,19.63
2023-01-04T16:15:15.238Z,18.95
2023-01-04T16:17:43.965Z,19.27
2023-01-04T16:20:13.183Z,18.40
2023-01-04T16:22:40.052Z,16.52
2023-01-04T16:25:10.872Z,17.75
2023-01-04T16:27:39.301Z,17.35
2023-01-04T16:30:09.408Z,17.48
2023-01-04T16:32:36.720Z,17.98
2023-01-04T16:35:04.370Z,17.27
2023-01-04T16:37:30.854Z,17.60
2023-01-04T16:40:06.274Z,16.70
2023-01-04T16:42:33.642Z,16.42
2023-01-04T16:45:00.135Z,15.85
2023-01-04T16:47:26.700Z,16.73
2023-01-04T16:49:53.507Z,16.65
2023-01-04T16:52:20.187Z,15.65
2023-01-04T16:54:46.757Z,16.17
2023-01-04T16:57:13.268Z,16.27
2023-01-04T16:59:39.708Z,14.35
2023-01-04T17:02:06.299Z,15.85
2023-01-04T17:04:32.944Z,15.38
2023-01-04T17:06:59.391Z,16.60
2023-01-04T17:09:25.964Z,15.30
2023-01-04T17:14:49.063Z,14.43
2023-01-04T17:17:18.644Z,14.40
2023-01-04T17:19:45.477Z,13.98
2023-01-04T17:22:11.994Z,13.73
2023-01-04T17:24:38.499Z,14.45
2023-01-04T17:27:05.039Z,13.48
2023-01-04T17:29:31.555Z,13.30
2023-01-04T17:31:58.177Z,13.35
2023-01-04T17:34:24.755Z,13.15
2023-01-04T17:36:51.278Z,12.98
2023-01-04T17:39:20.546Z,12.77
2023-01-04T17:41:47.114Z,12.57
2023-01-04T17:44:13.666Z,12.35
2023-01-04T17:46:40.203Z,11.98
2023-01-04T17:49:31.071Z,12.68
2023-01-04T17:51:55.814Z,12.85
2023-01-04T17:54:23.016Z,12.43
2023-01-04T17:56:49.560Z,12.07
2023-01-04T17:59:16.069Z,12.10
2023-01-04T18:01:42.804Z,11.32
2023-01-04T18:04:09.481Z,11.43
2023-01-04T18:06:36.900Z,12.45
2023-01-04T18:09:06.396Z,10.80
2023-01-04T18:11:33.316Z,11.32
2023-01-04T18:14:00.910Z,10.10
2023-01-04T18:16:29.871Z,10.32
2023-01-04T18:18:58.698Z,11.15
2023-01-04T18:21:31.192Z,9.73
2023-01-04T18:27:19.794Z,10.05
2023-01-04T18:29:33.485Z,9.85
2023-01-04T18:32:00.092Z,10.05
2023-01-04T18:34:26.997Z,9.63
2023-01-04T18:36:53.838Z,9.32
2023-01-04T18:39:20.927Z,9.60
2023-01-04T18:41:47.509Z,9.27
2023-01-04T18:47:02.580Z,8.82
2023-01-04T18:49:29.290Z,8.82
2023-01-04T18:51:55.847Z,9.23
2023-01-04T18:54:22.369Z,8.88
2023-01-04T18:56:49.144Z,8.20
2023-01-04T18:59:18.625Z,8.50
2023-01-04T19:01:45.811Z,9.00
2023-01-04T19:04:13.007Z,8.15
2023-01-04T19:06:40.584Z,8.40
2023-01-04T19:09:08.146Z,10.30
2023-01-04T19:11:35.647Z,7.97
2023-01-04T19:14:03.259Z,8.27
2023-01-04T19:16:31.173Z,7.90
2023-01-04T19:19:00.948Z,7.95
2023-01-04T19:21:28.547Z,7.22
2023-01-04T19:23:55.937Z,7.22
2023-01-04T19:26:23.173Z,8.82
2023-01-04T19:28:50.781Z,7.40
2023-01-04T19:31:20.117Z,7.30
2023-01-04T19:33:47.386Z,7.40
2023-01-04T19:36:16.041Z,7.30
2023-01-04T19:38:42.600Z,6.75
2023-01-04T19:41:26.546Z,7.70
2023-01-04T19:43:57.927Z,6.55
2023-01-04T19:46:24.593Z,7.53
2023-01-04T19:48:51.084Z,6.47
2023-01-04T19:51:17.739Z,6.32
2023-01-04T19:53:45.004Z,6.82
2023-01-04T19:56:13.499Z,6.80
2023-01-04T19:58:40.586Z,8.13
2023-01-04T20:01:07.353Z,6.18
2023-01-04T20:03:33.982Z,6.80
2023-01-04T20:06:04.760Z,6.60
2023-01-04T20:08:31.487Z,6.05
2023-01-04T20:10:59.704Z,6.03
2023-01-04T20:13:27.516Z,6.65
2023-01-04T20:15:54.348Z,5.20
2023-01-04T20:18:21.791Z,6.40
2023-01-04T20:20:48.317Z,5.65
2023-01-04T20:23:16.934Z,5.63
2023-01-04T20:25:49.546Z,5.85
2023-01-04T20:28:17.493Z,6.35
2023-01-04T20:30:44.042Z,6.35
2023-01-04T20:33:11.019Z,5.75
2023-01-04T20:35:38.920Z,5.43
2023-01-04T20:38:05.428Z,5.97
2023-01-04T20:40:32.188Z,5.72
2023-01-04T20:43:17.390Z,5.00
2023-01-04T20:45:45.388Z,5.25
2023-01-04T20:48:12.800Z,5.28
2023-01-04T20:50:39.663Z,5.32
2023-01-04T20:53:06.726Z,5.45
2023-01-04T20:55:40.170Z,4.85
2023-01-04T20:58:11.629Z,5.50
2023-01-04T21:00:39.335Z,4.70
2023-01-04T21:03:08.010Z,5.78
2023-01-04T21:05:37.545Z,5.00
2023-01-04T21:08:05.169Z,5.38
2023-01-04T21:10:32.159Z,6.00
2023-01-04T21:12:58.776Z,5.18
2023-01-04T21:15:25.417Z,4.40
2023-01-04T21:17:51.907Z,5.28
2023-01-04T21:20:18.531Z,4.18
2023-01-04T21:22:44.995Z,4.40
2023-01-04T21:25:11.456Z,4.38
2023-01-04T21:27:38.156Z,4.20
2023-01-04T21:30:05.289Z,4.68
2023-01-04T21:32:31.861Z,4.93
2023-01-04T21:34:58.609Z,4.45
2023-01-04T21:37:25.436Z,4.82
2023-01-04T21:39:51.946Z,5.05
2023-01-04T21:42:18.429Z,4.03
2023-01-04T21:44:44.907Z,5.05
2023-01-04T21:47:11.339Z,3.83
2023-01-04T21:49:43.569Z,3.97
2023-01-04T21:52:10.801Z,3.78
2023-01-04T21:54:38.226Z,3.42
2023-01-04T21:57:07.208Z,4.15
2023-01-04T21:59:34.584Z,4.25
2023-01-04T22:02:01.471Z,3.63
2023-01-04T22:04:28.197Z,3.50
2023-01-04T22:06:54.721Z,3.38
2023-01-04T22:09:21.433Z,4.13
2023-01-04T22:11:49.991Z,4.10
2023-01-04T22:14:17.584Z,3.50
2023-01-04T22:16:44.143Z,3.40
2023-01-04T22:19:14.551Z,3.78
2023-01-04T22:21:42.033Z,3.58
2023-01-04T22:24:12.984Z,3.17
2023-01-04T22:26:40.620Z,3.63
2023-01-04T22:29:07.294Z,3.72
2023-01-04T22:31:33.981Z,3.15
2023-01-04T22:34:00.772Z,3.35
2023-01-04T22:36:27.433Z,3.38
2023-01-04T22:38:55.747Z,3.38
2023-01-04T22:41:24.903Z,3.65
2023-01-04T22:43:59.844Z,3.63
2023-01-04T22:46:28.079Z,3.35
2023-01-04T22:48:54.804Z,3.53
2023-01-04T22:51:22.342Z,3.58
2023-01-04T22:53:49.318Z,3.33
2023-01-04T22:56:19.664Z,3.20
2023-01-04T22:58:52.502Z,3.65
2023-01-04T23:01:20.665Z,3.63
2023-01-04T23:03:47.626Z,3.65
2023-01-04T23:06:14.518Z,3.17
2023-01-04T23:08:41.254Z,2.97
2023-01-04T23:11:16.736Z,2.97
2023-01-04T23:13:43.633Z,3.53
2023-01-04T23:16:15.424Z,3.05
2023-01-04T23:18:41.950Z,2.72
2023-01-04T23:21:09.100Z,3.38
2023-01-04T23:23:35.662Z,3.65
2023-01-04T23:26:12.019Z,2.65
2023-01-04T23:28:38.654Z,3.75
2023-01-04T23:31:07.786Z,2.70
2023-01-04T23:33:36.831Z,2.78
2023-01-04T23:36:17.744Z,3.35
2023-01-04T23:38:49.389Z,2.92
2023-01-04T23:41:15.860Z,3.38
2023-01-04T23:43:42.430Z,3.22
2023-01-04T23:46:12.396Z,2.42
2023-01-04T23:48:39.192Z,3.03
2023-01-04T23:51:05.783Z,3.17
2023-01-04T23:53:32.284Z,3.17
2023-01-04T23:56:07.796Z,3.33
2023-01-04T23:58:34.465Z,2.75
